createdAt,value
2018-06-24T00:02:17.537Z,98003.81
2018-06-24T00:04:46.363Z,98005.52
2018-06-24T00:07:15.123Z,98008.09
2018-06-24T00:09:44.174Z,98006.80
2018-06-24T00:12:12.814Z,98004.63
2018-06-24T00:14:41.880Z,98001.17
2018-06-24T00:17:10.731Z,97997.76
2018-06-24T00:19:39.398Z,97993.89
2018-06-24T00:22:08.204Z,97993.42
2018-06-24T00:24:37.012Z,97991.73
2018-06-24T00:27:05.744Z,97990.41
2018-06-24T00:29:34.582Z,97985.67
2018-06-24T00:32:03.600Z,97984.38
2018-06-24T00:34:32.273Z,97994.68
2018-06-24T00:37:01.114Z,97986.95
2018-06-24T00:39:29.813Z,97987.80
2018-06-24T00:41:58.478Z,97986.11
2018-06-24T00:44:27.282Z,97981.78
2018-06-24T00:46:56.117Z,97979.17
2018-06-24T00:49:24.741Z,97977.48
2018-06-24T00:51:53.729Z,97972.73
2018-06-24T00:54:22.341Z,97968.00
2018-06-24T00:56:50.977Z,97971.42
2018-06-24T00:59:30.936Z,97968.44
2018-06-24T01:01:59.576Z,97969.28
2018-06-24T01:04:28.245Z,97966.23
2018-06-24T01:06:57.101Z,97964.55
2018-06-24T01:09:25.859Z,97970.09
2018-06-24T01:11:54.760Z,97966.71
2018-06-24T01:14:23.600Z,97921.17
2018-06-24T01:16:52.661Z,97963.70
2018-06-24T01:19:24.447Z,97964.11
2018-06-24T01:21:53.243Z,97958.95
2018-06-24T01:24:22.054Z,97955.91
2018-06-24T01:26:50.713Z,97949.95
2018-06-24T01:29:19.545Z,97942.64
2018-06-24T01:31:48.366Z,97949.50
2018-06-24T01:34:17.344Z,97952.96
2018-06-24T01:36:46.055Z,97951.23
2018-06-24T01:39:14.854Z,97949.03
2018-06-24T01:41:43.531Z,97950.33
2018-06-24T01:44:12.269Z,97949.48
2018-06-24T01:46:41.201Z,97946.90
2018-06-24T01:49:09.981Z,97944.30
2018-06-24T01:51:38.950Z,97942.16
2018-06-24T01:54:07.929Z,97942.57
2018-06-24T01:56:36.670Z,97943.86
2018-06-24T01:59:05.436Z,97939.56
2018-06-24T02:01:34.407Z,97943.39
2018-06-24T02:04:03.282Z,97941.66
2018-06-24T02:06:32.166Z,97936.08
2018-06-24T02:09:01.016Z,97936.48
2018-06-24T02:11:29.824Z,97935.20
2018-06-24T02:13:58.645Z,97936.05
2018-06-24T02:16:27.687Z,97932.19
2018-06-24T02:18:56.390Z,97931.30
2018-06-24T02:21:31.557Z,97926.60
2018-06-24T02:24:00.354Z,97927.41
2018-06-24T02:26:29.032Z,97920.55
2018-06-24T02:28:57.813Z,97920.92
2018-06-24T02:31:26.694Z,97923.49
2018-06-24T02:33:55.782Z,97920.48
2018-06-24T02:36:24.825Z,97926.91
2018-06-24T02:38:53.648Z,97926.51
2018-06-24T02:41:22.819Z,97926.88
2018-06-24T02:43:51.812Z,97924.31
2018-06-24T02:46:20.585Z,97917.84
2018-06-24T02:48:49.662Z,97923.03
2018-06-24T02:51:18.599Z,97916.16
2018-06-24T02:53:47.900Z,97915.27
2018-06-24T02:56:17.030Z,97918.25
2018-06-24T02:58:46.113Z,97912.27
2018-06-24T03:01:14.913Z,97917.84
2018-06-24T03:03:44.032Z,97914.39
2018-06-24T03:06:12.814Z,97913.08
2018-06-24T03:08:41.403Z,97910.06
2018-06-24T03:11:10.148Z,97905.77
2018-06-24T03:13:39.059Z,97910.47
2018-06-24T03:16:07.881Z,97906.61
2018-06-24T03:18:36.786Z,97904.89
2018-06-24T03:21:05.744Z,97910.88
2018-06-24T03:23:34.589Z,97909.12
2018-06-24T03:26:03.410Z,97910.85
2018-06-24T03:28:32.155Z,97905.70
2018-06-24T03:31:01.003Z,97905.27
2018-06-24T03:33:30.748Z,97906.08
2018-06-24T03:35:59.477Z,97909.06
2018-06-24T03:38:28.048Z,97903.47
2018-06-24T03:40:56.910Z,97900.47
2018-06-24T03:43:25.584Z,97903.88
2018-06-24T03:45:54.260Z,97906.92
2018-06-24T03:48:22.958Z,97903.06
2018-06-24T03:50:51.729Z,97902.19
2018-06-24T03:53:20.694Z,97907.34
2018-06-24T03:55:49.604Z,97905.61
2018-06-24T03:58:18.258Z,97907.74
2018-06-24T04:00:47.174Z,97909.50
2018-06-24T04:03:15.793Z,97909.88
2018-06-24T04:05:44.739Z,97912.86
2018-06-24T04:08:13.700Z,97917.59
2018-06-24T04:10:42.404Z,97917.97
2018-06-24T04:13:11.177Z,97917.53
2018-06-24T04:15:39.940Z,97922.30
2018-06-24T04:18:08.776Z,97932.59
2018-06-24T04:20:37.461Z,97922.27
2018-06-24T04:23:07.569Z,97926.53
2018-06-24T04:25:37.291Z,97932.53
2018-06-24T04:28:06.536Z,97926.50
2018-06-24T04:30:35.274Z,97930.77
2018-06-24T04:33:04.112Z,97928.64
2018-06-24T04:35:33.016Z,97930.77
2018-06-24T04:38:01.627Z,97932.50
2018-06-24T04:40:30.385Z,97933.81
2018-06-24T04:42:59.120Z,97932.05
2018-06-24T04:45:27.930Z,97936.80
2018-06-24T04:47:56.613Z,97932.05
2018-06-24T04:50:25.537Z,97931.21
2018-06-24T04:52:54.353Z,97932.50
2018-06-24T04:55:23.635Z,97932.91
2018-06-24T04:57:52.568Z,97931.62
2018-06-24T05:00:21.347Z,97929.89
2018-06-24T05:02:50.386Z,97938.05
2018-06-24T05:05:19.253Z,97932.02
2018-06-24T05:07:47.890Z,97929.05
2018-06-24T05:10:16.577Z,97929.05
2018-06-24T05:12:45.257Z,97926.88
2018-06-24T05:15:13.839Z,97922.20
2018-06-24T05:17:42.593Z,97927.35
2018-06-24T05:20:11.269Z,97928.61
2018-06-24T05:22:40.059Z,97923.87
2018-06-24T05:25:09.130Z,97924.75
2018-06-24T05:27:38.022Z,97928.61
2018-06-24T05:30:06.806Z,97925.19
2018-06-24T05:32:35.705Z,97923.02
2018-06-24T05:35:04.516Z,97921.33
2018-06-24T05:37:33.200Z,97921.33
2018-06-24T05:40:01.877Z,97915.30
2018-06-24T05:42:30.733Z,97916.59
2018-06-24T05:44:59.717Z,97917.06
2018-06-24T05:47:28.500Z,97917.47
2018-06-24T05:49:57.397Z,97911.44
2018-06-24T05:52:26.153Z,97917.47
2018-06-24T05:54:54.780Z,97923.49
2018-06-24T05:57:23.500Z,97915.74
2018-06-24T05:59:52.083Z,97913.61
2018-06-24T06:02:20.803Z,97919.70
2018-06-24T06:04:49.892Z,97921.42
2018-06-24T06:07:18.546Z,97925.75
2018-06-24T06:09:47.330Z,97924.47
2018-06-24T06:12:16.118Z,97921.92
2018-06-24T06:14:44.738Z,97925.06
2018-06-24T06:17:14.807Z,97915.71
2018-06-24T06:19:44.263Z,97922.20
2018-06-24T06:22:13.513Z,97920.92
2018-06-24T06:24:42.826Z,97921.80
2018-06-24T06:27:11.983Z,97919.26
2018-06-24T06:29:45.044Z,97919.28
2018-06-24T06:32:14.190Z,97921.10
2018-06-24T06:34:43.355Z,97930.67
2018-06-24T06:37:12.612Z,97924.33
2018-06-24T06:39:41.830Z,97920.98
2018-06-24T06:42:10.986Z,97921.95
2018-06-24T06:44:40.375Z,97922.05
2018-06-24T06:47:09.532Z,97917.80
2018-06-24T06:49:38.822Z,97914.78
2018-06-24T06:52:08.031Z,97912.68
2018-06-24T06:54:37.522Z,97918.27
2018-06-24T06:57:07.822Z,97920.41
2018-06-24T06:59:36.933Z,97917.39
2018-06-24T07:02:06.049Z,97915.75
2018-06-24T07:04:35.198Z,97909.37
2018-06-24T07:07:04.362Z,97909.45
2018-06-24T07:09:33.480Z,97917.31
2018-06-24T07:12:02.600Z,97908.38
2018-06-24T07:14:31.690Z,97902.85
2018-06-24T07:17:00.745Z,97905.89
2018-06-24T07:19:29.909Z,97900.38
2018-06-24T07:21:58.978Z,97900.84
2018-06-24T07:24:28.162Z,97898.73
2018-06-24T07:26:57.236Z,97900.04
2018-06-24T07:29:26.285Z,97899.69
2018-06-24T07:31:55.462Z,97891.07
2018-06-24T07:34:24.566Z,97896.74
2018-06-24T07:36:53.689Z,97893.59
2018-06-24T07:39:22.791Z,97891.55
2018-06-24T07:41:51.929Z,97887.75
2018-06-24T07:44:21.040Z,97887.78
2018-06-24T07:46:50.108Z,97883.06
2018-06-24T07:49:19.229Z,97883.03
2018-06-24T07:51:48.261Z,97886.53
2018-06-24T07:54:17.314Z,97878.81
2018-06-24T07:56:46.449Z,97874.94
2018-06-24T07:59:15.515Z,97872.24
2018-06-24T08:01:44.631Z,97866.14
2018-06-24T08:04:13.835Z,97870.93
2018-06-24T08:06:42.890Z,97870.15
2018-06-24T08:09:12.985Z,97872.75
2018-06-24T08:11:42.695Z,97873.19
2018-06-24T08:14:11.800Z,97881.84
2018-06-24T08:16:40.927Z,97876.30
2018-06-24T08:19:09.992Z,97868.94
2018-06-24T08:21:39.127Z,97833.76
2018-06-24T08:24:08.213Z,97872.39
2018-06-24T08:26:37.287Z,97870.31
2018-06-24T08:29:06.474Z,97867.72
2018-06-24T08:31:35.848Z,97865.12
2018-06-24T08:34:04.890Z,97869.44
2018-06-24T08:36:33.977Z,97868.62
2018-06-24T08:39:03.258Z,97863.00
2018-06-24T08:41:32.297Z,97864.73
2018-06-24T08:44:01.476Z,97865.12
2018-06-24T08:46:30.560Z,97857.81
2018-06-24T08:48:59.633Z,97863.41
2018-06-24T08:51:28.731Z,97860.38
2018-06-24T08:53:57.791Z,97850.92
2018-06-24T08:56:26.827Z,97856.09
2018-06-24T08:58:56.069Z,97855.27
2018-06-24T09:01:25.277Z,97855.70
2018-06-24T09:03:54.784Z,97852.69
2018-06-24T09:06:23.877Z,97850.55
2018-06-24T09:08:52.926Z,97854.85
2018-06-24T09:11:21.948Z,97852.30
2018-06-24T09:13:51.066Z,97857.89
2018-06-24T09:16:20.101Z,97852.37
2018-06-24T09:18:49.149Z,97854.09
2018-06-24T09:21:18.346Z,97851.95
2018-06-24T09:23:47.388Z,97848.06
2018-06-24T09:26:16.412Z,97851.94
2018-06-24T09:28:45.502Z,97847.21
2018-06-24T09:31:14.553Z,97843.37
2018-06-24T09:33:43.711Z,97846.42
2018-06-24T09:36:12.793Z,97857.30
2018-06-24T09:38:41.844Z,97846.95
2018-06-24T09:41:10.941Z,97845.78
2018-06-24T09:43:40.075Z,97859.59
2018-06-24T09:46:09.178Z,97847.17
2018-06-24T09:48:38.270Z,97850.61
2018-06-24T09:51:07.364Z,97851.91
2018-06-24T09:53:36.486Z,97848.45
2018-06-24T09:56:05.652Z,97844.13
2018-06-24T09:58:34.871Z,97835.95
2018-06-24T10:01:03.924Z,97840.68
2018-06-24T10:03:32.980Z,97841.11
2018-06-24T10:06:02.082Z,97831.72
2018-06-24T10:08:31.142Z,97830.47
2018-06-24T10:11:00.270Z,97823.17
2018-06-24T10:13:29.398Z,97820.61
2018-06-24T10:15:58.484Z,97819.73
2018-06-24T10:18:27.575Z,97826.18
2018-06-24T10:20:56.645Z,97825.77
2018-06-24T10:23:25.666Z,97831.84
2018-06-24T10:25:54.807Z,97826.22
2018-06-24T10:28:23.902Z,97825.83
2018-06-24T10:30:52.995Z,97825.39
2018-06-24T10:33:22.039Z,97818.92
2018-06-24T10:35:51.167Z,97819.77
2018-06-24T10:38:20.219Z,97817.16
2018-06-24T10:40:49.310Z,97817.59
2018-06-24T10:43:18.402Z,97814.53
2018-06-24T10:45:47.448Z,97815.39
2018-06-24T10:48:16.483Z,97817.95
2018-06-24T10:50:45.602Z,97810.19
2018-06-24T10:53:14.687Z,97805.41
2018-06-24T10:55:43.765Z,97810.97
2018-06-24T10:58:12.892Z,97811.78
2018-06-24T11:00:41.982Z,97809.66
2018-06-24T11:03:11.083Z,97802.32
2018-06-24T11:05:40.219Z,97802.73
2018-06-24T11:08:09.233Z,97809.62
2018-06-24T11:10:38.284Z,97805.29
2018-06-24T11:13:07.434Z,97802.67
2018-06-24T11:15:36.503Z,97796.20
2018-06-24T11:18:05.628Z,97799.25
2018-06-24T11:20:34.898Z,97799.68
2018-06-24T11:23:03.982Z,97801.87
2018-06-24T11:25:33.068Z,97798.39
2018-06-24T11:28:02.178Z,97793.23
2018-06-24T11:30:31.259Z,97789.00
2018-06-24T11:33:00.296Z,97791.11
2018-06-24T11:35:29.470Z,97786.46
2018-06-24T11:37:58.540Z,97784.80
2018-06-24T11:40:27.603Z,97786.58
2018-06-24T11:42:56.710Z,97785.28
2018-06-24T11:45:25.795Z,97780.17
2018-06-24T11:47:54.866Z,97780.63
2018-06-24T11:50:24.044Z,97783.20
2018-06-24T11:52:53.134Z,97781.05
2018-06-24T11:55:22.138Z,97779.77
2018-06-24T11:57:51.733Z,97770.73
2018-06-24T12:00:20.848Z,97771.61
2018-06-24T12:02:49.939Z,97776.36
2018-06-24T12:05:19.075Z,97774.63
2018-06-24T12:07:48.225Z,97768.66
2018-06-24T12:10:17.331Z,97755.78
2018-06-24T12:12:46.392Z,97760.52
2018-06-24T12:15:15.469Z,97763.98
2018-06-24T12:17:44.520Z,97761.41
2018-06-24T12:20:13.625Z,97764.39
2018-06-24T12:22:42.652Z,97761.77
2018-06-24T12:25:11.749Z,97754.85
2018-06-24T12:27:40.878Z,97762.98
2018-06-24T12:30:10.111Z,97759.95
2018-06-24T12:32:39.224Z,97763.39
2018-06-24T12:35:08.299Z,97767.23
2018-06-24T12:37:37.353Z,97761.61
2018-06-24T12:40:06.447Z,97767.63
2018-06-24T12:42:35.518Z,97765.45
2018-06-24T12:45:04.518Z,97764.98
2018-06-24T12:47:33.659Z,97764.56
2018-06-24T12:50:02.821Z,97761.52
2018-06-24T12:52:31.887Z,97760.28
2018-06-24T12:55:00.967Z,97759.87
2018-06-24T12:57:30.067Z,97752.17
2018-06-24T12:59:59.743Z,97757.77
2018-06-24T13:02:28.646Z,97754.36
2018-06-24T13:04:57.806Z,97756.50
2018-06-24T13:07:26.966Z,97764.25
2018-06-24T13:09:56.216Z,97751.36
2018-06-24T13:12:25.417Z,97752.65
2018-06-24T13:14:54.900Z,97709.75
2018-06-24T13:17:24.349Z,97748.78
2018-06-24T13:19:53.590Z,97747.51
2018-06-24T13:22:22.670Z,97748.37
2018-06-24T13:24:51.743Z,97746.67
2018-06-24T13:27:20.916Z,97741.48
2018-06-24T13:29:49.958Z,97741.48
2018-06-24T13:32:18.992Z,97739.33
2018-06-24T13:34:48.183Z,97735.89
2018-06-24T13:37:16.718Z,97735.05
2018-06-24T13:39:45.269Z,97732.47
2018-06-24T13:42:14.224Z,97731.17
2018-06-24T13:44:42.953Z,97726.45
2018-06-24T13:47:11.780Z,97730.34
2018-06-24T13:49:40.932Z,97731.19
2018-06-24T13:52:09.717Z,97724.28
2018-06-24T13:54:38.341Z,97727.31
2018-06-24T13:57:07.030Z,97727.73
2018-06-24T13:59:35.799Z,97721.28
2018-06-24T14:02:04.625Z,97719.12
2018-06-24T14:04:33.235Z,97721.69
2018-06-24T14:07:01.894Z,97724.27
2018-06-24T14:09:30.664Z,97723.42
2018-06-24T14:11:59.728Z,97724.27
2018-06-24T14:14:28.441Z,97723.42
2018-06-24T14:16:57.228Z,97723.84
2018-06-24T14:19:26.027Z,97728.99
2018-06-24T14:21:54.891Z,97724.23
2018-06-24T14:24:23.724Z,97724.23
2018-06-24T14:26:52.870Z,97724.23
2018-06-24T14:29:21.620Z,97725.11
2018-06-24T14:31:50.365Z,97723.38
2018-06-24T14:34:19.121Z,97726.83
2018-06-24T14:36:47.873Z,97724.70
2018-06-24T14:39:16.948Z,97716.95
2018-06-24T14:41:45.878Z,97719.11
2018-06-24T14:44:14.776Z,97721.30
2018-06-24T14:46:43.605Z,97720.92
2018-06-24T14:49:12.370Z,97715.84
2018-06-24T14:51:41.100Z,97715.44
2018-06-24T14:54:10.016Z,97720.78
2018-06-24T14:56:38.611Z,97721.94
2018-06-24T14:59:08.670Z,97711.64
2018-06-24T15:01:37.312Z,97708.98
2018-06-24T15:04:06.119Z,97707.50
2018-06-24T15:06:34.823Z,97465.25
2018-06-24T15:09:03.755Z,97704.52
2018-06-24T15:11:32.578Z,97705.79
2018-06-24T15:14:01.250Z,97708.37
2018-06-24T15:16:29.850Z,97697.53
2018-06-24T15:18:58.663Z,97687.97
2018-06-24T15:21:27.318Z,97699.35
2018-06-24T15:23:55.968Z,97689.69
2018-06-24T15:26:24.844Z,97680.91
2018-06-24T15:28:53.679Z,97679.55
2018-06-24T15:31:22.426Z,97675.19
2018-06-24T15:33:51.137Z,97680.71
2018-06-24T15:36:19.922Z,97673.78
2018-06-24T15:38:48.973Z,97672.84
2018-06-24T15:41:17.930Z,97674.12
2018-06-24T15:43:46.661Z,97667.73
2018-06-24T15:46:15.477Z,97672.42
2018-06-24T15:48:46.265Z,97671.09
2018-06-24T15:51:17.343Z,97671.45
2018-06-24T15:53:46.165Z,97667.11
2018-06-24T15:56:14.874Z,97672.69
2018-06-24T15:58:43.659Z,97666.22
2018-06-24T16:01:12.348Z,97670.08
2018-06-24T16:03:41.245Z,97660.63
2018-06-24T16:06:10.010Z,97661.05
2018-06-24T16:08:38.682Z,97664.90
2018-06-24T16:11:07.453Z,97653.26
2018-06-24T16:13:36.085Z,97651.59
2018-06-24T16:16:11.383Z,97648.56
2018-06-24T16:18:41.137Z,97646.38
2018-06-24T16:21:09.995Z,97645.46
2018-06-24T16:23:38.525Z,97645.43
2018-06-24T16:26:07.505Z,97644.53
2018-06-24T16:28:36.116Z,97651.80
2018-06-24T16:31:04.800Z,97653.06
2018-06-24T16:33:33.385Z,97651.33
2018-06-24T16:36:01.966Z,97656.48
2018-06-24T16:38:30.623Z,97658.58
2018-06-24T16:40:59.193Z,97658.16
2018-06-24T16:43:27.852Z,97652.99
2018-06-24T16:45:56.369Z,97651.70
2018-06-24T16:48:25.057Z,97652.58
2018-06-24T16:50:53.664Z,97645.66
2018-06-24T16:53:22.221Z,97640.05
2018-06-24T16:55:50.794Z,97635.73
2018-06-24T16:58:19.328Z,97640.45
2018-06-24T17:00:47.896Z,97642.63
2018-06-24T17:03:16.416Z,97636.59
2018-06-24T17:05:44.928Z,97633.59
2018-06-24T17:08:13.529Z,97637.03
2018-06-24T17:10:42.114Z,97636.56
2018-06-24T17:13:10.640Z,97643.00
2018-06-24T17:15:39.263Z,97643.39
2018-06-24T17:18:07.883Z,97637.42
2018-06-24T17:20:36.431Z,97632.27
2018-06-24T17:23:04.977Z,97633.56
2018-06-24T17:25:33.509Z,97638.28
2018-06-24T17:28:02.076Z,97634.42
2018-06-24T17:30:30.642Z,97635.70
2018-06-24T17:32:59.191Z,97634.42
2018-06-24T17:35:27.725Z,97635.70
2018-06-24T17:37:56.345Z,97634.37
2018-06-24T17:40:24.896Z,97637.41
2018-06-24T17:42:53.480Z,97642.56
2018-06-24T17:45:22.030Z,97637.77
2018-06-24T17:47:50.579Z,97638.63
2018-06-24T17:50:19.150Z,97645.51
2018-06-24T17:52:47.708Z,97638.20
2018-06-24T17:55:16.265Z,97640.31
2018-06-24T17:57:44.780Z,97637.73
2018-06-24T18:00:13.648Z,97634.32
2018-06-24T18:02:42.419Z,97634.70
2018-06-24T18:05:11.202Z,97637.26
2018-06-24T18:07:39.926Z,97635.52
2018-06-24T18:10:08.618Z,97632.06
2018-06-24T18:12:37.387Z,97630.78
2018-06-24T18:15:06.148Z,97625.19
2018-06-24T18:17:34.835Z,97622.17
2018-06-24T18:20:03.749Z,97623.89
2018-06-24T18:22:32.450Z,97629.47
2018-06-24T18:25:01.108Z,97623.02
2018-06-24T18:27:29.724Z,97629.06
2018-06-24T18:29:58.676Z,97627.31
2018-06-24T18:32:27.455Z,97628.59
2018-06-24T18:34:56.198Z,97632.91
2018-06-24T18:37:24.844Z,97646.63
2018-06-24T18:39:53.520Z,97625.17
2018-06-24T18:42:22.380Z,97627.31
2018-06-24T18:44:51.329Z,97625.17
2018-06-24T18:47:19.987Z,97625.59
2018-06-24T18:49:48.799Z,97625.59
2018-06-24T18:52:17.851Z,97624.71
2018-06-24T18:54:46.860Z,97629.00
2018-06-24T18:57:15.772Z,97630.30
2018-06-24T18:59:45.016Z,97633.29
2018-06-24T19:02:13.774Z,97633.70
2018-06-24T19:04:43.074Z,97633.68
2018-06-24T19:07:12.017Z,97629.81
2018-06-24T19:09:40.821Z,97634.53
2018-06-24T19:12:09.587Z,97633.66
2018-06-24T19:14:38.597Z,97634.94
2018-06-24T19:17:07.568Z,97631.09
2018-06-24T19:19:36.486Z,97634.95
2018-06-24T19:22:05.389Z,97634.08
2018-06-24T19:24:34.467Z,97638.35
2018-06-24T19:27:03.346Z,97637.06
2018-06-24T19:29:31.994Z,97641.36
2018-06-24T19:32:00.792Z,97640.53
2018-06-24T19:34:29.440Z,97634.48
2018-06-24T19:36:58.116Z,97643.09
2018-06-24T19:39:26.825Z,97640.50
2018-06-24T19:41:55.480Z,97642.62
2018-06-24T19:44:24.341Z,97645.19
2018-06-24T19:46:54.194Z,97651.61
2018-06-24T19:49:22.977Z,97652.87
2018-06-24T19:51:51.930Z,97655.02
2018-06-24T19:54:21.336Z,97652.45
2018-06-24T19:56:56.509Z,97649.44
2018-06-24T19:59:25.372Z,97652.02
2018-06-24T20:01:54.081Z,97654.58
2018-06-24T20:04:22.934Z,97659.27
2018-06-24T20:06:51.644Z,97662.72
2018-06-24T20:09:20.271Z,97657.98
2018-06-24T20:11:48.892Z,97660.55
2018-06-24T20:14:17.777Z,97664.86
2018-06-24T20:16:46.488Z,97667.85
2018-06-24T20:19:15.264Z,97664.40
2018-06-24T20:21:44.109Z,97665.69
2018-06-24T20:24:12.789Z,97670.42
2018-06-24T20:26:41.381Z,97669.55
2018-06-24T20:29:10.132Z,97675.16
2018-06-24T20:31:38.668Z,97667.83
2018-06-24T20:34:07.435Z,97666.98
2018-06-24T20:36:36.312Z,97669.53
2018-06-24T20:39:07.983Z,97666.13
2018-06-24T20:41:36.925Z,97665.66
2018-06-24T20:44:05.707Z,97670.00
2018-06-24T20:46:34.393Z,97673.40
2018-06-24T20:49:03.085Z,97666.91
2018-06-24T20:51:31.999Z,97672.06
2018-06-24T20:54:00.832Z,97669.94
2018-06-24T20:56:29.510Z,97674.23
2018-06-24T20:58:58.639Z,97678.09
2018-06-24T21:01:27.243Z,97675.07
2018-06-24T21:03:56.520Z,97674.63
2018-06-24T21:06:25.709Z,97677.20
2018-06-24T21:08:54.551Z,97685.38
2018-06-24T21:11:23.216Z,97681.51
2018-06-24T21:13:51.913Z,97681.48
2018-06-24T21:16:20.568Z,97684.48
2018-06-24T21:18:49.796Z,97681.47
2018-06-24T21:21:18.937Z,97681.90
2018-06-24T21:23:48.190Z,97683.60
2018-06-24T21:26:16.979Z,97681.88
2018-06-24T21:28:52.132Z,97676.30
2018-06-24T21:31:20.728Z,97677.59
2018-06-24T21:33:49.463Z,97680.58
2018-06-24T21:36:18.122Z,97678.88
2018-06-24T21:38:47.514Z,97682.29
2018-06-24T21:41:16.417Z,97679.70
2018-06-24T21:43:45.328Z,97677.56
2018-06-24T21:46:14.237Z,97684.00
2018-06-24T21:48:43.121Z,97682.72
2018-06-24T21:51:11.930Z,97682.72
2018-06-24T21:53:40.876Z,97683.13
2018-06-24T21:56:09.730Z,97678.39
2018-06-24T21:58:38.825Z,97676.25
2018-06-24T22:01:07.640Z,97676.25
2018-06-24T22:03:36.427Z,97674.97
2018-06-24T22:06:05.234Z,97681.84
2018-06-24T22:08:34.011Z,97679.24
2018-06-24T22:11:02.829Z,97680.53
2018-06-24T22:13:31.581Z,97684.39
2018-06-24T22:16:00.461Z,97680.53
2018-06-24T22:18:29.205Z,97680.55
2018-06-24T22:20:58.148Z,97684.80
2018-06-24T22:23:26.803Z,97683.97
2018-06-24T22:25:55.572Z,97689.12
2018-06-24T22:28:24.567Z,97683.50
2018-06-24T22:30:53.424Z,97685.23
2018-06-24T22:33:22.201Z,97687.80
2018-06-24T22:35:51.181Z,97683.48
2018-06-24T22:38:20.083Z,97689.91
2018-06-24T22:40:48.957Z,97691.20
2018-06-24T22:43:17.760Z,97687.78
2018-06-24T22:45:46.788Z,97686.91
2018-06-24T22:48:15.508Z,97688.17
2018-06-24T22:50:44.550Z,97691.16
2018-06-24T22:53:13.276Z,97692.04
2018-06-24T22:55:42.065Z,97692.91
2018-06-24T22:58:10.930Z,97693.73
2018-06-24T23:00:39.858Z,97691.60
2018-06-24T23:03:09.470Z,97695.88
2018-06-24T23:05:38.345Z,97695.86
2018-06-24T23:08:07.118Z,97704.46
2018-06-24T23:10:35.842Z,97701.44
2018-06-24T23:13:04.641Z,97705.73
2018-06-24T23:15:33.383Z,97701.39
2018-06-24T23:18:02.162Z,97700.98
2018-06-24T23:20:30.874Z,97703.16
2018-06-24T23:22:59.721Z,97700.11
2018-06-24T23:25:28.536Z,97698.83
2018-06-24T23:27:57.146Z,97700.11
2018-06-24T23:30:26.811Z,97703.56
2018-06-24T23:32:55.500Z,97705.70
2018-06-24T23:35:24.473Z,97705.65
2018-06-24T23:37:53.248Z,97705.65
2018-06-24T23:40:22.123Z,97704.36
2018-06-24T23:42:50.787Z,97698.74
2018-06-24T23:45:19.632Z,97703.89
2018-06-24T23:47:48.233Z,97707.76
2018-06-24T23:50:17.230Z,97699.19
2018-06-24T23:52:45.996Z,97705.16
2018-06-24T23:55:14.690Z,97704.75
2018-06-24T23:57:43.340Z,97701.30
